Millenium Air

Millenium Air Since 1998



 METAR AND TAF INFORMATION
METAR FOR EGGW
ADDS - METARS form results

(0605 UTC 18 April 2021)
Data provider http://aviationweather.gov/metar/data/
 
METAR text: EGGW 180550Z AUTO 10001KT 9999 NCD 03/M01 Q1025
Conditions at: EGGW (LUTON AIRPORT , GB) observed 0550 UTC 18 April 2021
Temperature: 3.0°C (37°F)
Dewpoint: -1.0°C (30°F) [RH = 75%]
Pressure (altimeter): 30.27 inches Hg (1025.0 mb)
Winds: from the E (100 degrees) at 1 MPH (1 knots; 0.5 m/s)
Visibility: 6 or more miles (10+ km)
Ceiling: at least 12,000 feet AGL
Clouds: sky clear below 12,000 feet AGL
Weather: no significant weather observed at this time

METAR text: EGGW 180520Z AUTO 19001KT 9999 NCD 01/M02 Q1025
Conditions at: EGGW (LUTON AIRPORT , GB) observed 0520 UTC 18 April 2021
Temperature: 1.0°C (34°F)
Dewpoint: -2.0°C (28°F) [RH = 80%]
Pressure (altimeter): 30.27 inches Hg (1025.0 mb)
Winds: from the S (190 degrees) at 1 MPH (1 knots; 0.5 m/s)
Visibility: 6 or more miles (10+ km)
Ceiling: at least 12,000 feet AGL
Clouds: sky clear below 12,000 feet AGL
Weather: no significant weather observed at this time

Forecast for: EGGW (LUTON AIRPORT , GB)
Text: TAF EGGW 180459Z 1806/1906 VRB03KT CAVOK
Forecast period: 0600 UTC 18 April 2021 to 0600 UTC 19 April 2021
Forecast type: FROM: standard forecast or significant change
Winds: variable direction winds at 3 MPH (3 knots; 1.5 m/s)
Visibility: 6 or more miles (10+ km)
Ceiling: unknown
Clouds: missing
Weather: NSW  (no significant weather)

 AIRPORT MAP

 RUNWAY INFORMATION
Runway 08 Runway length 7086 ft Runway width 151 ft
Runway elevation 515 ft Runway displaced threshold 0 ft Runway heading 74
Runway 26 Runway length 7086 ft Runway width 151 ft
Runway elevation 508 ft Runway displaced threshold 279 ft Runway heading 254

 AIRPORT FREQUENCIES
Type APP Name APP Frequency 129.55 MHZ
Type ATIS Name ATIS Frequency 120.575 MHZ
Type GND Name GND Frequency 121.75 MHZ
Type TWR Name TWR Frequency 132.55 MHZ

 AIRPORT NEAR NAVIGATION AIDS